Time;durP1;ratioP1;P1;durP2;ratioP2;P2;SDS_P1;SDS_P2;PMS_P1;PMS_P2;Temp;Humidity;BMP_temperature;BMP_pressure;BME280_temperature;BME280_humidity;BME280_pressure;Samples;Min_cycle;Max_cycle;Signal;HPM_P1;HPM_P2
2021/10/20 00:01:14;;;;;;;2.65;2.20;;;;;;;;;;4366165;32;20093;-65
2021/10/20 00:03:41;;;;;;;2.35;1.83;;;;;;;;;;4364661;32;20178;-65
2021/10/20 00:06:07;;;;;;;2.75;2.12;;;;;;;;;;4339762;32;20495;-68
2021/10/20 00:08:34;;;;;;;3.10;2.20;;;;;;;;;;4365112;32;20086;-64
2021/10/20 00:11:01;;;;;;;3.08;1.70;;;;;;;;;;4352431;32;20078;-64
2021/10/20 00:13:27;;;;;;;2.75;2.05;;;;;;;;;;4339516;32;20089;-64
2021/10/20 00:15:54;;;;;;;3.53;2.10;;;;;;;;;;4352597;32;20451;-64
2021/10/20 00:18:21;;;;;;;2.67;2.10;;;;;;;;;;4364503;32;20151;-66
2021/10/20 00:20:48;;;;;;;3.85;2.10;;;;;;;;;;4340408;32;20078;-63
2021/10/20 00:23:15;;;;;;;3.37;2.37;;;;;;;;;;4339928;32;20141;-63
2021/10/20 00:25:42;;;;;;;2.20;2.00;;;;;;;;;;4351845;32;20496;-65
2021/10/20 00:28:09;;;;;;;4.47;2.30;;;;;;;;;;4364290;32;20066;-64
2021/10/20 00:30:35;;;;;;;3.75;2.10;;;;;;;;;;4351934;32;20073;-65
2021/10/20 00:33:02;;;;;;;3.22;2.40;;;;;;;;;;4339582;32;20070;-63
2021/10/20 00:35:29;;;;;;;2.85;2.22;;;;;;;;;;4351830;32;20081;-64
2021/10/20 00:37:56;;;;;;;3.25;2.33;;;;;;;;;;4364484;32;20142;-64
2021/10/20 00:40:22;;;;;;;3.85;2.20;;;;;;;;;;4351432;32;20096;-64
2021/10/20 00:42:50;;;;;;;3.35;2.20;;;;;;;;;;4364209;32;20162;-64
2021/10/20 00:45:16;;;;;;;5.65;2.37;;;;;;;;;;4339522;32;20086;-64
2021/10/20 00:47:43;;;;;;;3.25;2.20;;;;;;;;;;4351590;32;20061;-63
2021/10/20 00:50:11;;;;;;;3.75;2.62;;;;;;;;;;4364907;32;20149;-65
2021/10/20 00:52:38;;;;;;;3.20;2.17;;;;;;;;;;4351656;32;20495;-64
2021/10/20 00:55:05;;;;;;;3.33;2.12;;;;;;;;;;4338961;32;20067;-64
2021/10/20 00:57:32;;;;;;;2.83;2.20;;;;;;;;;;4363878;32;20175;-65
2021/10/20 01:00:00;;;;;;;2.97;2.12;;;;;;;;;;4352476;32;20074;-63
2021/10/20 01:02:26;;;;;;;3.15;2.20;;;;;;;;;;4352602;32;20077;-64
2021/10/20 01:04:53;;;;;;;3.28;2.10;;;;;;;;;;4363883;32;20454;-65
2021/10/20 01:07:22;;;;;;;4.20;2.50;;;;;;;;;;4338977;32;20073;-64
2021/10/20 01:09:49;;;;;;;4.37;2.58;;;;;;;;;;4351242;32;20083;-65
2021/10/20 01:12:16;;;;;;;3.12;2.20;;;;;;;;;;4350671;32;20081;-64
2021/10/20 01:14:43;;;;;;;3.65;2.53;;;;;;;;;;4363891;32;20086;-64
2021/10/20 01:17:09;;;;;;;4.05;2.42;;;;;;;;;;4363790;32;20054;-64
2021/10/20 01:19:41;;;;;;;3.90;2.35;;;;;;;;;;4351049;32;20074;-65
2021/10/20 01:22:08;;;;;;;2.80;2.17;;;;;;;;;;4363668;32;20078;-65
2021/10/20 01:24:34;;;;;;;3.80;2.62;;;;;;;;;;4351047;32;20171;-62
2021/10/20 01:27:01;;;;;;;4.78;2.30;;;;;;;;;;4365553;32;20489;-64
2021/10/20 01:29:28;;;;;;;2.80;2.22;;;;;;;;;;4356957;32;20084;-64
2021/10/20 01:31:57;;;;;;;3.83;2.55;;;;;;;;;;4363274;32;20159;-65
2021/10/20 01:34:23;;;;;;;4.05;2.22;;;;;;;;;;4351035;32;20101;-65
2021/10/20 01:36:50;;;;;;;3.62;2.60;;;;;;;;;;4363622;32;20122;-66
2021/10/20 01:39:18;;;;;;;3.33;2.30;;;;;;;;;;4351435;32;20138;-64
2021/10/20 01:41:45;;;;;;;3.97;2.67;;;;;;;;;;4339309;32;20062;-65
2021/10/20 01:44:12;;;;;;;4.53;2.60;;;;;;;;;;4338657;32;20150;-63
2021/10/20 01:46:38;;;;;;;4.55;2.47;;;;;;;;;;4363514;32;20137;-65
2021/10/20 01:49:05;;;;;;;3.42;2.65;;;;;;;;;;4376896;32;20094;-65
2021/10/20 01:51:31;;;;;;;3.35;2.50;;;;;;;;;;4350833;32;20058;-64
2021/10/20 01:53:58;;;;;;;4.87;2.80;;;;;;;;;;4363075;32;20069;-64
2021/10/20 01:56:24;;;;;;;5.85;2.83;;;;;;;;;;4377155;32;20090;-63
2021/10/20 01:58:51;;;;;;;4.00;2.60;;;;;;;;;;4350435;32;20074;-64
2021/10/20 02:01:17;;;;;;;3.30;2.47;;;;;;;;;;4362927;32;20511;-65
2021/10/20 02:03:45;;;;;;;3.60;2.53;;;;;;;;;;4362945;32;20085;-63
2021/10/20 02:06:13;;;;;;;3.70;2.80;;;;;;;;;;4350833;32;20092;-65
2021/10/20 02:08:41;;;;;;;3.78;2.50;;;;;;;;;;4363153;32;20059;-63
2021/10/20 02:11:07;;;;;;;3.72;2.60;;;;;;;;;;4350745;32;20532;-63
2021/10/20 02:13:34;;;;;;;6.95;2.95;;;;;;;;;;4350800;32;20070;-63
2021/10/20 02:16:03;;;;;;;5.75;2.90;;;;;;;;;;4351286;32;20082;-64
2021/10/20 02:18:30;;;;;;;4.80;3.30;;;;;;;;;;4362974;32;20523;-64
2021/10/20 02:20:56;;;;;;;5.10;3.12;;;;;;;;;;4350512;32;20089;-64
2021/10/20 02:23:23;;;;;;;6.62;3.22;;;;;;;;;;4362826;32;20137;-65
2021/10/20 02:25:49;;;;;;;6.78;3.37;;;;;;;;;;4350148;32;20070;-65
2021/10/20 02:28:16;;;;;;;5.82;3.20;;;;;;;;;;4350360;32;20081;-63
2021/10/20 02:30:43;;;;;;;5.62;3.03;;;;;;;;;;4362401;32;20584;-64
2021/10/20 02:33:10;;;;;;;4.00;2.47;;;;;;;;;;4337622;32;20521;-64
2021/10/20 02:35:37;;;;;;;4.87;2.70;;;;;;;;;;4337682;32;20068;-63
2021/10/20 02:38:03;;;;;;;3.58;2.70;;;;;;;;;;4362490;32;20104;-65
2021/10/20 02:40:30;;;;;;;4.00;2.58;;;;;;;;;;4350174;32;20514;-63
2021/10/20 02:42:56;;;;;;;3.33;2.37;;;;;;;;;;4363146;32;20062;-63
2021/10/20 02:45:23;;;;;;;4.22;2.70;;;;;;;;;;4363052;32;20451;-63
2021/10/20 02:47:50;;;;;;;4.43;2.58;;;;;;;;;;4349856;32;20181;-65
2021/10/20 02:50:16;;;;;;;4.18;2.75;;;;;;;;;;4337484;32;20437;-63
2021/10/20 02:52:43;;;;;;;4.68;2.87;;;;;;;;;;4362770;32;20085;-65
2021/10/20 02:55:10;;;;;;;5.20;2.70;;;;;;;;;;4350628;32;20071;-64
2021/10/20 02:57:37;;;;;;;5.00;2.78;;;;;;;;;;4362553;32;20155;-65
2021/10/20 03:00:04;;;;;;;4.50;2.72;;;;;;;;;;4376189;32;20073;-64
2021/10/20 03:02:31;;;;;;;6.43;3.17;;;;;;;;;;4362511;32;20069;-65
2021/10/20 03:04:57;;;;;;;6.07;3.30;;;;;;;;;;4350278;32;20078;-64
2021/10/20 03:07:24;;;;;;;5.95;3.10;;;;;;;;;;4362707;32;20086;-63
2021/10/20 03:09:50;;;;;;;5.93;3.80;;;;;;;;;;4362631;32;20165;-65
2021/10/20 03:12:17;;;;;;;7.68;3.53;;;;;;;;;;4376030;32;20062;-63
2021/10/20 03:14:43;;;;;;;8.50;4.12;;;;;;;;;;4349856;32;20069;-64
2021/10/20 03:17:11;;;;;;;6.75;3.37;;;;;;;;;;4362144;32;20067;-64
2021/10/20 03:19:38;;;;;;;8.00;4.32;;;;;;;;;;4337922;32;20097;-65
2021/10/20 03:22:04;;;;;;;9.75;4.43;;;;;;;;;;4337526;32;20155;-66
2021/10/20 03:24:31;;;;;;;9.50;4.12;;;;;;;;;;4350026;32;20063;-63
2021/10/20 03:26:58;;;;;;;6.93;4.03;;;;;;;;;;4349726;32;20106;-64
2021/10/20 03:29:24;;;;;;;9.77;4.40;;;;;;;;;;4362151;32;20174;-65
2021/10/20 03:31:51;;;;;;;7.95;4.10;;;;;;;;;;4349821;32;20580;-65
2021/10/20 03:34:17;;;;;;;5.22;3.55;;;;;;;;;;4350600;32;20093;-65
2021/10/20 03:36:44;;;;;;;5.50;3.40;;;;;;;;;;4340263;32;20159;-63
2021/10/20 03:39:11;;;;;;;5.53;4.03;;;;;;;;;;4352217;32;20077;-63
2021/10/20 03:41:37;;;;;;;8.63;4.40;;;;;;;;;;4352975;32;20101;-65
2021/10/20 03:44:04;;;;;;;13.68;5.65;;;;;;;;;;4364882;32;20453;-65
2021/10/20 03:46:31;;;;;;;10.68;5.15;;;;;;;;;;4364869;32;20093;-64
2021/10/20 03:48:57;;;;;;;10.43;4.90;;;;;;;;;;4352320;32;20096;-65
2021/10/20 03:51:24;;;;;;;8.55;4.40;;;;;;;;;;4352649;32;20089;-65
2021/10/20 03:53:51;;;;;;;8.57;4.07;;;;;;;;;;4352496;32;20070;-63
2021/10/20 03:56:17;;;;;;;7.70;4.35;;;;;;;;;;4364704;32;20162;-64
2021/10/20 03:58:44;;;;;;;4.53;2.85;;;;;;;;;;4352078;32;20531;-64
2021/10/20 04:01:10;;;;;;;5.35;3.20;;;;;;;;;;4364798;32;20081;-64
2021/10/20 04:03:38;;;;;;;5.85;3.30;;;;;;;;;;4352238;32;20085;-64
2021/10/20 04:06:04;;;;;;;5.68;3.12;;;;;;;;;;4352564;32;20526;-64
2021/10/20 04:08:31;;;;;;;4.10;2.80;;;;;;;;;;4365307;32;20531;-64
2021/10/20 04:10:57;;;;;;;5.05;3.12;;;;;;;;;;4378682;32;20093;-64
2021/10/20 04:13:24;;;;;;;4.72;3.47;;;;;;;;;;4364254;32;20063;-64
2021/10/20 04:15:51;;;;;;;5.82;3.42;;;;;;;;;;4352720;32;20491;-65
2021/10/20 04:18:17;;;;;;;5.47;3.15;;;;;;;;;;4352711;32;20440;-65
2021/10/20 04:20:44;;;;;;;7.70;3.28;;;;;;;;;;4352297;32;20085;-64
2021/10/20 04:23:10;;;;;;;5.72;3.08;;;;;;;;;;4378208;32;20169;-64
2021/10/20 04:25:37;;;;;;;6.07;3.03;;;;;;;;;;4351612;32;20165;-64
2021/10/20 04:28:04;;;;;;;5.43;3.65;;;;;;;;;;4351795;32;20066;-62
2021/10/20 04:30:30;;;;;;;5.75;3.33;;;;;;;;;;4364226;32;20459;-65
2021/10/20 04:32:57;;;;;;;5.65;3.85;;;;;;;;;;4352001;32;20529;-64
2021/10/20 04:35:25;;;;;;;7.05;4.18;;;;;;;;;;4351758;32;20583;-63
2021/10/20 04:37:51;;;;;;;5.70;3.37;;;;;;;;;;4364319;32;20514;-64
2021/10/20 04:40:18;;;;;;;6.85;3.67;;;;;;;;;;4339195;32;20078;-66
2021/10/20 04:42:45;;;;;;;6.07;3.97;;;;;;;;;;4364196;32;20145;-64
2021/10/20 04:45:12;;;;;;;7.05;4.00;;;;;;;;;;4364745;32;20516;-65
2021/10/20 04:47:39;;;;;;;7.35;4.50;;;;;;;;;;4352346;32;20070;-63
2021/10/20 04:50:07;;;;;;;7.85;4.75;;;;;;;;;;4351863;32;20155;-63
2021/10/20 04:52:35;;;;;;;14.52;4.43;;;;;;;;;;4352023;32;20093;-64
2021/10/20 04:55:05;;;;;;;7.82;4.60;;;;;;;;;;4339533;32;20456;-64
2021/10/20 04:57:32;;;;;;;5.65;3.90;;;;;;;;;;4351719;32;20067;-63
2021/10/20 04:59:59;;;;;;;5.05;3.10;;;;;;;;;;4364342;32;20134;-65
2021/10/20 05:02:26;;;;;;;5.28;3.28;;;;;;;;;;4351138;32;20163;-64
2021/10/20 05:04:52;;;;;;;7.10;4.53;;;;;;;;;;4351455;32;20070;-62
2021/10/20 05:07:19;;;;;;;8.25;4.07;;;;;;;;;;4351899;32;20078;-62
2021/10/20 05:09:45;;;;;;;4.43;3.00;;;;;;;;;;4364245;32;20528;-64
2021/10/20 05:12:12;;;;;;;5.70;3.45;;;;;;;;;;4352397;32;20469;-63
2021/10/20 05:14:39;;;;;;;6.12;3.90;;;;;;;;;;4339506;32;20090;-65
2021/10/20 05:17:05;;;;;;;7.43;3.90;;;;;;;;;;4377227;32;20063;-66
2021/10/20 05:19:32;;;;;;;6.00;3.35;;;;;;;;;;4363649;32;20074;-63
2021/10/20 05:21:58;;;;;;;5.87;3.60;;;;;;;;;;4377552;32;20550;-63
2021/10/20 05:24:25;;;;;;;3.47;2.70;;;;;;;;;;4363939;32;20088;-64
2021/10/20 05:26:54;;;;;;;5.15;2.75;;;;;;;;;;4377750;32;20223;-63
2021/10/20 05:29:21;;;;;;;3.92;2.78;;;;;;;;;;4351226;32;20086;-64
2021/10/20 05:31:48;;;;;;;6.62;2.97;;;;;;;;;;4351142;32;20130;-64
2021/10/20 05:34:14;;;;;;;3.30;2.60;;;;;;;;;;4363011;32;20496;-63
2021/10/20 05:36:41;;;;;;;4.30;3.05;;;;;;;;;;4363237;32;20092;-63
2021/10/20 05:39:07;;;;;;;3.83;2.92;;;;;;;;;;4351556;32;20082;-63
2021/10/20 05:41:34;;;;;;;4.00;2.87;;;;;;;;;;4363371;32;20084;-64
2021/10/20 05:44:00;;;;;;;4.00;3.08;;;;;;;;;;4363097;32;20089;-63
2021/10/20 05:46:27;;;;;;;4.03;2.83;;;;;;;;;;4363090;32;20094;-63
2021/10/20 05:48:54;;;;;;;3.05;2.25;;;;;;;;;;4338325;32;20468;-62
2021/10/20 05:51:20;;;;;;;3.97;2.40;;;;;;;;;;4363233;32;20214;-63
2021/10/20 05:53:47;;;;;;;5.20;2.80;;;;;;;;;;4350712;32;20078;-65
2021/10/20 05:56:14;;;;;;;5.87;3.20;;;;;;;;;;4362831;32;20073;-63
2021/10/20 05:58:41;;;;;;;5.12;3.05;;;;;;;;;;4362552;32;20504;-63
2021/10/20 06:01:10;;;;;;;3.30;2.15;;;;;;;;;;4351151;32;20070;-64
2021/10/20 06:03:37;;;;;;;4.62;3.20;;;;;;;;;;4363365;32;20503;-64
2021/10/20 06:06:03;;;;;;;5.53;3.53;;;;;;;;;;4350925;32;20101;-63
2021/10/20 06:08:30;;;;;;;4.85;3.00;;;;;;;;;;4350809;32;20071;-65
2021/10/20 06:10:57;;;;;;;3.35;2.50;;;;;;;;;;4350624;32;20081;-63
2021/10/20 06:13:23;;;;;;;3.70;2.67;;;;;;;;;;4350693;32;20097;-64
2021/10/20 06:15:50;;;;;;;5.43;3.17;;;;;;;;;;4362955;32;20158;-62
2021/10/20 06:18:16;;;;;;;3.97;2.08;;;;;;;;;;4350148;32;20468;-64
2021/10/20 06:20:43;;;;;;;3.08;2.30;;;;;;;;;;4350437;32;20074;-62
2021/10/20 06:23:10;;;;;;;3.95;2.42;;;;;;;;;;4350490;32;20457;-64
2021/10/20 06:25:37;;;;;;;5.62;2.90;;;;;;;;;;4338381;32;20069;-63
2021/10/20 06:28:04;;;;;;;2.72;2.10;;;;;;;;;;4362415;32;20078;-63
2021/10/20 06:30:31;;;;;;;3.78;2.35;;;;;;;;;;4350159;32;20077;-64
2021/10/20 06:32:57;;;;;;;3.67;2.10;;;;;;;;;;4338009;32;20070;-62
2021/10/20 06:35:24;;;;;;;4.40;2.70;;;;;;;;;;4362544;32;20101;-65
2021/10/20 06:37:54;;;;;;;3.30;2.37;;;;;;;;;;4351161;32;20098;-64
2021/10/20 06:40:20;;;;;;;3.33;2.60;;;;;;;;;;4351256;32;20171;-67
2021/10/20 06:42:47;;;;;;;3.62;2.40;;;;;;;;;;4350342;32;20078;-63
2021/10/20 06:45:14;;;;;;;2.65;2.15;;;;;;;;;;4337959;32;20081;-63
2021/10/20 06:47:41;;;;;;;4.03;2.60;;;;;;;;;;4349702;32;20077;-64
2021/10/20 06:50:08;;;;;;;2.17;1.60;;;;;;;;;;4338212;32;20152;-62
2021/10/20 06:52:42;;;;;;;3.60;2.42;;;;;;;;;;4350256;32;20070;-62
2021/10/20 06:55:09;;;;;;;3.35;2.62;;;;;;;;;;4362229;32;20169;-62
2021/10/20 06:57:36;;;;;;;2.83;1.98;;;;;;;;;;4337657;32;20491;-62
2021/10/20 07:00:04;;;;;;;3.95;2.60;;;;;;;;;;4338078;32;20090;-64
2021/10/20 07:02:30;;;;;;;3.10;1.95;;;;;;;;;;4362678;32;20081;-63
2021/10/20 07:04:57;;;;;;;2.47;1.62;;;;;;;;;;4362426;32;20153;-63
2021/10/20 07:07:23;;;;;;;2.78;2.22;;;;;;;;;;4350590;32;20059;-65
2021/10/20 07:09:50;;;;;;;2.60;1.85;;;;;;;;;;4350199;32;20073;-64
2021/10/20 07:12:16;;;;;;;4.00;2.30;;;;;;;;;;4340536;32;20250;-63
2021/10/20 07:14:43;;;;;;;3.35;2.20;;;;;;;;;;4365416;32;20082;-63
2021/10/20 07:17:09;;;;;;;3.65;2.12;;;;;;;;;;4366135;32;20089;-64
2021/10/20 07:19:39;;;;;;;4.87;2.03;;;;;;;;;;4365607;32;20073;-62
2021/10/20 07:22:06;;;;;;;2.30;1.90;;;;;;;;;;4365560;32;20524;-64
2021/10/20 07:24:34;;;;;;;3.10;1.90;;;;;;;;;;4340678;32;20081;-64
2021/10/20 07:27:01;;;;;;;3.03;1.83;;;;;;;;;;4340645;32;20146;-65
2021/10/20 07:29:28;;;;;;;2.70;2.00;;;;;;;;;;4340547;32;20079;-64
2021/10/20 07:31:54;;;;;;;3.65;2.10;;;;;;;;;;4365822;32;20136;-63
2021/10/20 07:34:21;;;;;;;2.05;1.85;;;;;;;;;;4340688;32;20175;-64
2021/10/20 07:36:48;;;;;;;2.65;1.98;;;;;;;;;;4353178;32;20096;-63
2021/10/20 07:39:15;;;;;;;3.65;2.20;;;;;;;;;;4364981;32;20620;-65
2021/10/20 07:41:41;;;;;;;3.65;1.67;;;;;;;;;;4365192;32;20094;-64
2021/10/20 07:44:08;;;;;;;2.67;1.85;;;;;;;;;;4364862;32;20474;-63
2021/10/20 07:46:34;;;;;;;2.53;2.00;;;;;;;;;;4378721;32;20519;-63
2021/10/20 07:49:01;;;;;;;2.42;1.52;;;;;;;;;;4352444;32;20101;-63
2021/10/20 07:51:28;;;;;;;3.47;2.00;;;;;;;;;;4365323;32;20524;-64
2021/10/20 07:53:54;;;;;;;2.62;2.10;;;;;;;;;;4352438;32;20535;-64
2021/10/20 07:56:21;;;;;;;3.05;2.10;;;;;;;;;;4352087;32;20548;-62
2021/10/20 07:58:48;;;;;;;2.78;1.75;;;;;;;;;;4365213;32;20092;-63
2021/10/20 08:01:15;;;;;;;2.80;1.67;;;;;;;;;;4365008;32;20086;-62
2021/10/20 08:03:41;;;;;;;2.90;2.10;;;;;;;;;;4339962;32;20093;-63
2021/10/20 08:06:08;;;;;;;3.08;2.12;;;;;;;;;;4352083;32;20058;-64
2021/10/20 08:08:35;;;;;;;4.43;2.08;;;;;;;;;;4351595;32;20535;-62
2021/10/20 08:11:01;;;;;;;2.12;1.80;;;;;;;;;;4352063;32;20471;-62
2021/10/20 08:13:28;;;;;;;2.45;1.90;;;;;;;;;;4340412;32;20096;-62
2021/10/20 08:15:55;;;;;;;3.62;2.20;;;;;;;;;;4339351;32;20167;-62
2021/10/20 08:18:22;;;;;;;2.58;1.98;;;;;;;;;;4364196;32;20077;-62
2021/10/20 08:20:48;;;;;;;3.30;2.20;;;;;;;;;;4351944;32;20070;-63
2021/10/20 08:23:15;;;;;;;1.73;1.60;;;;;;;;;;4364317;32;20078;-63
2021/10/20 08:25:42;;;;;;;2.42;1.52;;;;;;;;;;4339596;32;20497;-62
2021/10/20 08:28:09;;;;;;;1.75;1.17;;;;;;;;;;4351350;32;20094;-63
2021/10/20 08:30:36;;;;;;;1.48;1.02;;;;;;;;;;4352208;32;20085;-62
2021/10/20 08:33:03;;;;;;;1.35;1.02;;;;;;;;;;4352446;32;20191;-63
2021/10/20 08:35:30;;;;;;;1.17;1.00;;;;;;;;;;4364435;32;20556;-62
2021/10/20 08:38:00;;;;;;;2.55;1.40;;;;;;;;;;4364125;32;20079;-62
2021/10/20 08:40:33;;;;;;;2.42;0.80;;;;;;;;;;4352442;32;20082;-62
2021/10/20 08:43:00;;;;;;;3.80;1.00;;;;;;;;;;4352462;32;20166;-63
2021/10/20 08:45:27;;;;;;;0.77;0.77;;;;;;;;;;4364217;32;20475;-62
2021/10/20 08:47:53;;;;;;;0.70;0.65;;;;;;;;;;4363476;32;20094;-62
2021/10/20 08:50:25;;;;;;;1.48;1.05;;;;;;;;;;4378035;32;20448;-63
2021/10/20 08:52:52;;;;;;;1.02;0.50;;;;;;;;;;4351495;32;20089;-62
2021/10/20 08:55:19;;;;;;;2.67;0.90;;;;;;;;;;4352221;32;20086;-63
2021/10/20 08:57:52;;;;;;;2.80;1.00;;;;;;;;;;4352899;32;20078;-61
2021/10/20 09:00:19;;;;;;;2.33;1.30;;;;;;;;;;4351329;32;20078;-62
2021/10/20 09:02:47;;;;;;;1.92;1.42;;;;;;;;;;4370186;32;20067;-62
2021/10/20 09:05:19;;;;;;;2.47;1.30;;;;;;;;;;4368409;32;20074;-62
2021/10/20 09:07:47;;;;;;;2.00;1.40;;;;;;;;;;4351996;32;20093;-63
2021/10/20 09:10:14;;;;;;;3.42;1.90;;;;;;;;;;4351880;32;20097;-62
2021/10/20 09:15:20;;;;;;;2.37;1.42;;;;;;;;;;3810431;37;20051;-62
2021/10/20 09:17:50;;;;;;;3.72;1.75;;;;;;;;;;4378800;32;20157;-62
2021/10/20 09:20:37;;;;;;;2.35;1.50;;;;;;;;;;4392297;32;20077;-62
2021/10/20 09:23:08;;;;;;;1.92;1.33;;;;;;;;;;4366060;32;20084;-63
2021/10/20 09:25:48;;;;;;;2.30;1.58;;;;;;;;;;4378271;32;20186;-62
2021/10/20 09:28:22;;;;;;;2.30;1.58;;;;;;;;;;4366094;32;20070;-64
2021/10/20 09:30:49;;;;;;;2.58;1.45;;;;;;;;;;4378233;32;20109;-64
2021/10/20 09:33:15;;;;;;;3.65;1.70;;;;;;;;;;4377898;32;20506;-63
2021/10/20 09:35:42;;;;;;;2.95;1.73;;;;;;;;;;4353282;32;20078;-62
2021/10/20 09:38:09;;;;;;;2.58;1.62;;;;;;;;;;4353259;32;20092;-63
2021/10/20 09:40:43;;;;;;;2.30;1.62;;;;;;;;;;4365537;32;20149;-63
2021/10/20 09:43:11;;;;;;;3.53;2.00;;;;;;;;;;4378240;32;20083;-64
2021/10/20 09:45:39;;;;;;;3.70;2.33;;;;;;;;;;4366607;32;20077;-62
2021/10/20 09:48:17;;;;;;;3.80;1.83;;;;;;;;;;4378107;32;20508;-63
2021/10/20 09:51:13;;;;;;;3.33;1.98;;;;;;;;;;4377729;32;20073;-62
2021/10/20 09:53:41;;;;;;;3.30;2.10;;;;;;;;;;4379351;32;20089;-63
2021/10/20 09:56:30;;;;;;;3.62;2.20;;;;;;;;;;4377790;32;20547;-62
2021/10/20 10:01:36;;;;;;;3.30;1.83;;;;;;;;;;3857682;37;20059;-64
2021/10/20 10:04:07;;;;;;;2.28;1.58;;;;;;;;;;4393390;32;20096;-63
2021/10/20 10:06:33;;;;;;;2.90;1.98;;;;;;;;;;4393881;32;20611;-62
2021/10/20 10:09:00;;;;;;;2.90;1.70;;;;;;;;;;4393544;32;20093;-63
2021/10/20 10:11:27;;;;;;;3.50;2.40;;;;;;;;;;4390556;32;20087;-63
2021/10/20 10:17:17;;;;;;;2.17;1.55;;;;;;;;;;4405248;32;20089;-63
2021/10/20 10:19:44;;;;;;;2.03;1.50;;;;;;;;;;4390731;32;20074;-63
2021/10/20 10:22:24;;;;;;;3.60;2.05;;;;;;;;;;4390392;32;20093;-64
2021/10/20 10:24:51;;;;;;;4.00;1.90;;;;;;;;;;4378527;32;20105;-63
2021/10/20 10:27:17;;;;;;;2.40;1.48;;;;;;;;;;4391034;32;20156;-62
2021/10/20 10:30:00;;;;;;;4.20;1.60;;;;;;;;;;4378501;32;20085;-64
2021/10/20 10:32:27;;;;;;;2.55;1.62;;;;;;;;;;4390298;32;20167;-63
2021/10/20 10:34:56;;;;;;;1.83;1.45;;;;;;;;;;4365897;32;20478;-63
2021/10/20 10:37:31;;;;;;;1.87;1.40;;;;;;;;;;4377964;32;20078;-62
2021/10/20 10:40:02;;;;;;;4.12;1.62;;;;;;;;;;4390713;32;20515;-64
2021/10/20 10:45:13;;;;;;;2.55;1.30;;;;;;;;;;3857426;37;20085;-64
2021/10/20 10:48:01;;;;;;;1.55;0.98;;;;;;;;;;4418830;32;20065;-63
2021/10/20 10:50:50;;;;;;;2.35;1.50;;;;;;;;;;4407031;32;20526;-63
2021/10/20 10:53:38;;;;;;;2.05;1.58;;;;;;;;;;4405571;32;20522;-63
2021/10/20 10:56:09;;;;;;;2.30;1.30;;;;;;;;;;4394404;32;20083;-62
2021/10/20 10:58:55;;;;;;;2.00;1.60;;;;;;;;;;4380962;32;20074;-63
2021/10/20 11:01:44;;;;;;;2.33;1.50;;;;;;;;;;4406080;32;20499;-63
2021/10/20 11:04:25;;;;;;;1.23;1.10;;;;;;;;;;4406477;32;20152;-63
2021/10/20 11:07:04;;;;;;;2.47;1.20;;;;;;;;;;4406422;32;20110;-63
2021/10/20 11:09:32;;;;;;;1.83;1.35;;;;;;;;;;4406626;32;20195;-62
2021/10/20 11:11:59;;;;;;;1.98;1.40;;;;;;;;;;4390976;32;20532;-62
2021/10/20 11:14:28;;;;;;;3.12;2.40;;;;;;;;;;4390877;32;20200;-62
2021/10/20 11:17:11;;;;;;;3.10;2.12;;;;;;;;;;4390824;32;20065;-62
2021/10/20 11:19:38;;;;;;;4.32;2.00;;;;;;;;;;4390780;32;20073;-62
2021/10/20 11:22:04;;;;;;;1.95;1.25;;;;;;;;;;4377533;32;20093;-63
2021/10/20 11:24:33;;;;;;;3.35;1.70;;;;;;;;;;4378005;32;20060;-65
2021/10/20 11:27:05;;;;;;;3.97;1.92;;;;;;;;;;4377956;32;20073;-63
2021/10/20 11:29:41;;;;;;;1.55;1.23;;;;;;;;;;4391428;32;20078;-64
2021/10/20 11:32:09;;;;;;;1.50;1.10;;;;;;;;;;4377781;32;20097;-63
2021/10/20 11:34:39;;;;;;;4.60;1.23;;;;;;;;;;4390410;32;20073;-63
2021/10/20 11:37:09;;;;;;;1.30;1.20;;;;;;;;;;4390882;32;20557;-63
2021/10/20 11:39:37;;;;;;;3.67;1.90;;;;;;;;;;4391167;32;20519;-64
2021/10/20 11:42:04;;;;;;;1.90;1.52;;;;;;;;;;4390896;32;20511;-63
2021/10/20 11:44:33;;;;;;;3.03;1.40;;;;;;;;;;4390628;32;20070;-63
2021/10/20 11:47:01;;;;;;;2.87;1.50;;;;;;;;;;4390182;32;20073;-62
2021/10/20 11:49:28;;;;;;;3.60;1.70;;;;;;;;;;4402535;32;20074;-64
2021/10/20 11:51:54;;;;;;;3.25;2.03;;;;;;;;;;4403897;32;20088;-62
2021/10/20 11:54:22;;;;;;;2.53;1.67;;;;;;;;;;4401982;32;20165;-63
2021/10/20 11:56:56;;;;;;;3.10;1.80;;;;;;;;;;4379527;32;20080;-63
2021/10/20 11:59:26;;;;;;;3.55;1.50;;;;;;;;;;4367671;32;20089;-63
2021/10/20 12:01:53;;;;;;;2.20;1.40;;;;;;;;;;4355032;32;20081;-63
2021/10/20 12:04:20;;;;;;;3.15;1.40;;;;;;;;;;4366955;32;20084;-62
2021/10/20 12:06:50;;;;;;;2.85;1.50;;;;;;;;;;4392205;32;20454;-63
2021/10/20 12:09:16;;;;;;;2.83;1.25;;;;;;;;;;4379700;32;20086;-63
2021/10/20 12:11:43;;;;;;;2.12;1.30;;;;;;;;;;4379940;32;20093;-62
2021/10/20 12:14:12;;;;;;;3.75;2.10;;;;;;;;;;4392714;32;20070;-63
2021/10/20 12:16:40;;;;;;;2.92;1.90;;;;;;;;;;4379684;32;20049;-62
2021/10/20 12:19:08;;;;;;;4.18;1.87;;;;;;;;;;4393037;32;20171;-62
2021/10/20 12:21:34;;;;;;;3.28;2.05;;;;;;;;;;4392402;32;20162;-62
2021/10/20 12:24:02;;;;;;;2.67;1.70;;;;;;;;;;4393178;32;20159;-62
2021/10/20 12:26:33;;;;;;;1.67;1.48;;;;;;;;;;4367157;32;20506;-63
2021/10/20 12:29:09;;;;;;;5.03;2.03;;;;;;;;;;4379437;32;20084;-63
2021/10/20 12:31:36;;;;;;;3.20;1.93;;;;;;;;;;4366957;32;20089;-65
2021/10/20 12:34:03;;;;;;;4.82;1.42;;;;;;;;;;4366786;32;20182;-63
2021/10/20 12:36:30;;;;;;;2.53;1.70;;;;;;;;;;4379097;32;20519;-64
2021/10/20 12:38:58;;;;;;;3.17;1.67;;;;;;;;;;4379630;32;20081;-64
2021/10/20 12:41:31;;;;;;;2.28;1.40;;;;;;;;;;4379299;32;20093;-64
2021/10/20 12:44:00;;;;;;;1.90;1.40;;;;;;;;;;4380000;32;20097;-65
2021/10/20 12:46:28;;;;;;;3.45;1.50;;;;;;;;;;4380204;32;20080;-63
2021/10/20 12:48:55;;;;;;;2.28;1.48;;;;;;;;;;4381120;32;20078;-63
2021/10/20 12:51:26;;;;;;;2.45;1.55;;;;;;;;;;4378761;32;20501;-64
2021/10/20 12:53:58;;;;;;;2.30;1.50;;;;;;;;;;4379105;32;20070;-65
2021/10/20 12:56:25;;;;;;;2.65;1.55;;;;;;;;;;4382375;32;20229;-65
2021/10/20 12:59:09;;;;;;;2.97;1.73;;;;;;;;;;4366560;32;20156;-64
2021/10/20 13:01:37;;;;;;;1.65;1.17;;;;;;;;;;4379324;32;20200;-63
2021/10/20 13:04:04;;;;;;;1.33;1.08;;;;;;;;;;4378825;32;20086;-63
2021/10/20 13:06:30;;;;;;;2.47;1.45;;;;;;;;;;4390713;32;20073;-62
2021/10/20 13:08:57;;;;;;;2.50;1.40;;;;;;;;;;4378800;32;20070;-65
2021/10/20 13:11:23;;;;;;;2.78;1.55;;;;;;;;;;4391476;32;20061;-64
2021/10/20 13:13:50;;;;;;;1.98;1.23;;;;;;;;;;4392746;32;20084;-63
2021/10/20 13:16:16;;;;;;;2.42;1.40;;;;;;;;;;4366381;32;20086;-64
2021/10/20 13:18:43;;;;;;;2.70;1.48;;;;;;;;;;4366677;32;20076;-64
2021/10/20 13:21:10;;;;;;;2.22;1.33;;;;;;;;;;4365914;32;20214;-63
2021/10/20 13:23:37;;;;;;;1.85;1.25;;;;;;;;;;4390701;32;20098;-62
2021/10/20 13:26:05;;;;;;;3.08;1.70;;;;;;;;;;4390825;32;20097;-62
2021/10/20 13:28:32;;;;;;;2.55;1.50;;;;;;;;;;4366557;32;20108;-63
2021/10/20 13:30:59;;;;;;;1.95;1.17;;;;;;;;;;4378698;32;20085;-63
2021/10/20 13:33:25;;;;;;;2.87;1.75;;;;;;;;;;4391961;32;20479;-65
2021/10/20 13:35:52;;;;;;;1.62;1.30;;;;;;;;;;4366544;32;20085;-64
2021/10/20 13:38:22;;;;;;;1.55;1.02;;;;;;;;;;4366275;32;20078;-63
2021/10/20 13:40:49;;;;;;;1.08;0.98;;;;;;;;;;4378841;32;20069;-63
2021/10/20 13:43:16;;;;;;;3.20;1.10;;;;;;;;;;4378122;32;20078;-65
2021/10/20 13:45:42;;;;;;;1.10;1.00;;;;;;;;;;4366090;32;20085;-65
2021/10/20 13:48:10;;;;;;;2.58;1.15;;;;;;;;;;4378087;32;20074;-64
2021/10/20 13:50:37;;;;;;;1.65;1.37;;;;;;;;;;4378663;32;20066;-64
2021/10/20 13:53:04;;;;;;;2.72;1.10;;;;;;;;;;4365460;32;20078;-63
2021/10/20 13:55:31;;;;;;;4.43;1.77;;;;;;;;;;4378661;32;20100;-64
2021/10/20 13:57:58;;;;;;;5.47;1.90;;;;;;;;;;4378318;32;20070;-63
2021/10/20 14:00:25;;;;;;;1.75;1.50;;;;;;;;;;4378083;32;20069;-63
2021/10/20 14:02:52;;;;;;;2.10;1.62;;;;;;;;;;4365597;32;20078;-64
2021/10/20 14:05:19;;;;;;;2.42;1.35;;;;;;;;;;4378158;32;20092;-63
2021/10/20 14:07:46;;;;;;;1.62;1.17;;;;;;;;;;4378007;32;20463;-64
2021/10/20 14:10:12;;;;;;;1.80;1.33;;;;;;;;;;4378395;32;20084;-64
2021/10/20 14:12:39;;;;;;;4.60;1.50;;;;;;;;;;4378558;32;20170;-64
2021/10/20 14:15:07;;;;;;;1.50;1.02;;;;;;;;;;4378206;32;20445;-63
2021/10/20 14:17:34;;;;;;;1.67;1.15;;;;;;;;;;4365168;32;20502;-64
2021/10/20 14:20:05;;;;;;;2.53;1.67;;;;;;;;;;4377782;32;20089;-64
2021/10/20 14:22:31;;;;;;;2.17;1.27;;;;;;;;;;4378184;32;20073;-63
2021/10/20 14:24:58;;;;;;;2.03;1.50;;;;;;;;;;4365234;32;20081;-64
2021/10/20 14:27:26;;;;;;;2.78;1.40;;;;;;;;;;4352771;32;20159;-62
2021/10/20 14:29:53;;;;;;;4.22;1.75;;;;;;;;;;4365036;32;20080;-63
2021/10/20 14:32:20;;;;;;;2.85;1.30;;;;;;;;;;4365359;32;20086;-63
2021/10/20 14:34:48;;;;;;;2.08;1.50;;;;;;;;;;4353099;32;20070;-64
2021/10/20 14:37:15;;;;;;;1.67;1.35;;;;;;;;;;4378019;32;20533;-65
2021/10/20 14:39:42;;;;;;;2.62;1.75;;;;;;;;;;4377854;32;20088;-62
2021/10/20 14:42:09;;;;;;;2.12;1.60;;;;;;;;;;4365342;32;20070;-65
2021/10/20 14:44:35;;;;;;;1.62;1.52;;;;;;;;;;4377336;32;20104;-63
2021/10/20 14:47:02;;;;;;;2.53;1.50;;;;;;;;;;4378314;32;20058;-64
2021/10/20 14:49:29;;;;;;;4.78;1.62;;;;;;;;;;4390906;32;20061;-63
2021/10/20 14:51:55;;;;;;;2.33;1.75;;;;;;;;;;4390619;32;20102;-64
2021/10/20 14:54:22;;;;;;;1.75;1.50;;;;;;;;;;4390198;32;20085;-63
2021/10/20 14:56:49;;;;;;;2.37;1.40;;;;;;;;;;4365020;32;20073;-63
2021/10/20 15:00:24;;;;;;;2.95;1.77;;;;;;;;;;3857532;37;20054;-65